createdAt,value
2019-03-23T00:00:57.815Z,102267.20
2019-03-23T00:03:25.809Z,102271.39
2019-03-23T00:05:53.812Z,102261.23
2019-03-23T00:08:21.807Z,102260.83
2019-03-23T00:10:49.811Z,102259.83
2019-03-23T00:13:17.804Z,102259.03
2019-03-23T00:15:45.798Z,102255.16
2019-03-23T00:18:14.050Z,102252.49
2019-03-23T00:20:42.191Z,102257.11
2019-03-23T00:23:10.189Z,102256.41
2019-03-23T00:25:38.155Z,102253.31
2019-03-23T00:28:06.147Z,102250.07
2019-03-23T00:30:34.352Z,102251.23
2019-03-23T00:33:02.387Z,102251.21
2019-03-23T00:35:30.386Z,102260.66
2019-03-23T00:37:58.493Z,102180.06
2019-03-23T00:40:30.545Z,102255.95
2019-03-23T00:43:00.986Z,102256.34
2019-03-23T00:45:28.974Z,102251.47
2019-03-23T00:47:56.983Z,102246.94
2019-03-23T00:50:24.957Z,102250.06
2019-03-23T00:52:53.002Z,102241.21
2019-03-23T00:55:21.146Z,102245.41
2019-03-23T00:57:49.125Z,102240.58
2019-03-23T01:00:17.106Z,102246.70
2019-03-23T01:02:45.121Z,102253.03
2019-03-23T01:05:13.099Z,102250.23
2019-03-23T01:07:41.072Z,102248.07
2019-03-23T01:10:09.237Z,102253.67
2019-03-23T01:12:37.211Z,102264.70
2019-03-23T01:15:05.652Z,102272.84
2019-03-23T01:17:33.766Z,102277.19
2019-03-23T01:20:01.771Z,102286.11
2019-03-23T01:22:32.984Z,102272.43
2019-03-23T01:25:00.970Z,102278.41
2019-03-23T01:27:28.938Z,102276.14
2019-03-23T01:29:56.959Z,102283.48
2019-03-23T01:32:25.154Z,102157.81
2019-03-23T01:34:53.154Z,102265.85
2019-03-23T01:37:21.195Z,102261.33
2019-03-23T01:39:49.195Z,102245.42
2019-03-23T01:42:17.540Z,102257.83
2019-03-23T01:44:45.536Z,102255.62
2019-03-23T01:47:13.520Z,102256.25
2019-03-23T01:49:41.528Z,102261.59
2019-03-23T01:52:09.542Z,102247.30
2019-03-23T01:54:37.521Z,102256.71
2019-03-23T01:57:05.518Z,102168.84
2019-03-23T01:59:33.514Z,102256.28
2019-03-23T02:02:01.535Z,102267.56
2019-03-23T02:04:30.750Z,102265.67
2019-03-23T02:06:58.796Z,102262.98
2019-03-23T02:09:26.787Z,102260.39
2019-03-23T02:11:55.134Z,102260.74
2019-03-23T02:14:23.118Z,102260.34
2019-03-23T02:16:51.132Z,102255.48
2019-03-23T02:19:19.240Z,102258.58
2019-03-23T02:21:47.226Z,102266.73
2019-03-23T02:24:15.284Z,102237.27
2019-03-23T02:26:43.293Z,102280.59
2019-03-23T02:29:11.285Z,102284.19
2019-03-23T02:31:39.453Z,102272.41
2019-03-23T02:34:07.759Z,102285.47
2019-03-23T02:36:35.739Z,102277.83
2019-03-23T02:39:04.884Z,102212.25
2019-03-23T02:41:32.955Z,102289.06
2019-03-23T02:44:05.075Z,102283.06
2019-03-23T02:46:30.780Z,102290.35
2019-03-23T02:48:58.760Z,102294.52
2019-03-23T02:51:26.825Z,102109.56
2019-03-23T02:53:54.838Z,102301.22
2019-03-23T02:56:22.840Z,102294.09
2019-03-23T02:58:50.824Z,102319.54
2019-03-23T03:01:18.818Z,102311.30
2019-03-23T03:03:46.806Z,102283.19
2019-03-23T03:06:14.834Z,102329.41
2019-03-23T03:08:42.924Z,102322.24
2019-03-23T03:11:10.900Z,102322.29
2019-03-23T03:13:39.110Z,102324.95
2019-03-23T03:16:07.110Z,102310.17
2019-03-23T03:18:35.078Z,102273.10
2019-03-23T03:21:03.149Z,102259.20
2019-03-23T03:23:31.124Z,102302.50
2019-03-23T03:32:18.917Z,102320.03
2019-03-23T03:34:46.933Z,102317.82
2019-03-23T03:37:14.916Z,102316.50
2019-03-23T03:39:42.956Z,102316.02
2019-03-23T03:42:10.985Z,102321.42
2019-03-23T03:44:39.036Z,102327.64
2019-03-23T03:47:07.036Z,102317.81
2019-03-23T03:49:35.030Z,102219.50
2019-03-23T03:52:03.017Z,102321.84
2019-03-23T03:54:31.023Z,102269.09
2019-03-23T03:56:59.013Z,102315.06
2019-03-23T03:59:26.999Z,102314.67
2019-03-23T04:01:55.012Z,102306.63
2019-03-23T04:04:31.859Z,102299.50
2019-03-23T04:06:59.870Z,102288.34
2019-03-23T04:09:28.096Z,102294.57
2019-03-23T04:11:56.083Z,102302.62
2019-03-23T04:14:24.102Z,102304.42
2019-03-23T04:16:52.107Z,102257.93
2019-03-23T04:19:20.129Z,102303.97
2019-03-23T04:21:48.178Z,102303.06
2019-03-23T04:24:16.155Z,102307.56
2019-03-23T04:26:44.166Z,102134.21
2019-03-23T04:29:12.227Z,102303.53
2019-03-23T04:31:40.302Z,102310.12
2019-03-23T04:34:08.340Z,102314.56
2019-03-23T04:36:36.399Z,102295.30
2019-03-23T04:39:05.521Z,102329.30
2019-03-23T04:41:39.127Z,102341.96
2019-03-23T04:44:07.154Z,102347.33
2019-03-23T04:46:35.147Z,102354.48
2019-03-23T04:49:03.156Z,102357.64
2019-03-23T04:51:31.193Z,102361.64
2019-03-23T04:53:59.345Z,102368.82
2019-03-23T04:56:27.382Z,102367.45
2019-03-23T04:58:55.702Z,102288.77
2019-03-23T05:01:23.726Z,102298.61
2019-03-23T05:03:51.815Z,102373.70
2019-03-23T05:06:19.839Z,102363.89
2019-03-23T05:08:47.882Z,102372.81
2019-03-23T05:11:15.861Z,102370.58
2019-03-23T05:13:43.863Z,102372.77
2019-03-23T05:16:11.915Z,102380.38
2019-03-23T05:18:42.007Z,102382.56
2019-03-23T05:21:17.568Z,102378.17
2019-03-23T05:23:45.904Z,102381.34
2019-03-23T05:26:14.215Z,102379.55
2019-03-23T05:28:43.202Z,102372.80
2019-03-23T05:31:11.183Z,102379.06
2019-03-23T05:33:39.254Z,102374.17
2019-03-23T05:36:07.254Z,102381.29
2019-03-23T05:38:44.027Z,102399.11
2019-03-23T05:41:05.002Z,102398.72
2019-03-23T05:43:33.527Z,102409.08
2019-03-23T05:46:01.547Z,102413.11
2019-03-23T05:48:29.577Z,102417.52
2019-03-23T05:50:57.571Z,102409.91
2019-03-23T05:53:25.597Z,102401.04
2019-03-23T05:55:53.626Z,102414.39
2019-03-23T05:58:29.309Z,102415.31
2019-03-23T06:00:57.587Z,102421.95
2019-03-23T06:03:25.774Z,102417.08
2019-03-23T06:05:53.750Z,102422.79
2019-03-23T06:08:21.732Z,102420.19
2019-03-23T06:10:49.729Z,102425.08
2019-03-23T06:13:18.002Z,102435.80
2019-03-23T06:15:46.027Z,102429.13
2019-03-23T06:18:14.510Z,102422.02
2019-03-23T06:20:42.475Z,102419.75
2019-03-23T06:23:10.460Z,102421.55
2019-03-23T06:25:38.478Z,102430.52
2019-03-23T06:28:06.500Z,102377.72
2019-03-23T06:30:34.600Z,102437.21
2019-03-23T06:33:02.590Z,102445.63
2019-03-23T06:35:31.855Z,102442.95
2019-03-23T06:37:59.919Z,102438.48
2019-03-23T06:40:27.974Z,102442.14
2019-03-23T06:45:25.169Z,102446.14
2019-03-23T06:47:53.305Z,102442.61
2019-03-23T06:50:21.369Z,102453.26
2019-03-23T06:52:49.449Z,102453.28
2019-03-23T06:55:17.494Z,102448.83
2019-03-23T06:57:45.606Z,102458.61
2019-03-23T07:00:13.657Z,102456.45
2019-03-23T07:02:41.754Z,102456.47
2019-03-23T07:05:09.916Z,102454.58
2019-03-23T07:07:37.983Z,102456.03
2019-03-23T07:10:07.216Z,102299.05
2019-03-23T07:12:35.400Z,102451.88
2019-03-23T07:15:03.605Z,102455.40
2019-03-23T07:17:31.728Z,102453.05
2019-03-23T07:19:59.790Z,102466.59
2019-03-23T07:22:27.976Z,102463.85
2019-03-23T07:24:56.146Z,102474.21
2019-03-23T07:27:24.353Z,102475.52
2019-03-23T07:29:53.371Z,102472.87
2019-03-23T07:32:21.527Z,102475.48
2019-03-23T07:34:49.688Z,102478.94
2019-03-23T07:37:17.727Z,102481.80
2019-03-23T07:39:45.841Z,102480.86
2019-03-23T07:42:13.885Z,102485.61
2019-03-23T07:44:42.003Z,102481.16
2019-03-23T07:47:10.163Z,102474.48
2019-03-23T07:49:38.678Z,102475.25
2019-03-23T07:52:06.764Z,102482.92
2019-03-23T07:54:35.103Z,102480.59
2019-03-23T07:57:03.404Z,102480.62
2019-03-23T08:02:41.622Z,102487.15
2019-03-23T08:05:09.764Z,102490.45
2019-03-23T08:07:38.010Z,102488.67
2019-03-23T08:10:06.323Z,102492.68
2019-03-23T08:12:35.540Z,102499.94
2019-03-23T08:15:03.789Z,102508.42
2019-03-23T08:17:32.060Z,102375.08
2019-03-23T08:20:00.409Z,102500.05
2019-03-23T08:22:28.614Z,102496.94
2019-03-23T08:24:56.784Z,102496.03
2019-03-23T08:27:25.982Z,102497.97
2019-03-23T08:29:54.135Z,102494.42
2019-03-23T08:32:23.674Z,102497.52
2019-03-23T08:34:51.864Z,102498.67
2019-03-23T08:37:20.114Z,102475.38
2019-03-23T08:39:48.855Z,102508.92
2019-03-23T08:42:16.994Z,102506.26
2019-03-23T08:44:45.433Z,102420.06
2019-03-23T08:47:14.792Z,102503.14
2019-03-23T08:49:43.339Z,102510.86
2019-03-23T08:52:11.589Z,102508.61
2019-03-23T08:54:39.917Z,102509.96
2019-03-23T08:57:08.017Z,102513.48
2019-03-23T08:59:36.612Z,102515.74
2019-03-23T09:02:04.753Z,102532.22
2019-03-23T09:04:32.926Z,102540.80
2019-03-23T09:07:01.338Z,102511.23
2019-03-23T09:09:29.439Z,102535.39
2019-03-23T09:11:57.578Z,102533.53
2019-03-23T09:14:25.672Z,102540.27
2019-03-23T09:23:27.050Z,102535.34
2019-03-23T09:26:10.606Z,102530.89
2019-03-23T09:29:08.887Z,102528.66
2019-03-23T09:31:36.976Z,102533.99
2019-03-23T09:34:05.062Z,102494.23
2019-03-23T09:36:33.245Z,102532.65
2019-03-23T09:39:01.557Z,102438.75
2019-03-23T09:41:29.918Z,102542.50
2019-03-23T09:43:58.062Z,102554.19
2019-03-23T09:46:26.226Z,102534.58
2019-03-23T09:48:54.533Z,102555.98
2019-03-23T09:51:22.772Z,102551.55
2019-03-23T09:53:51.138Z,102541.70
2019-03-23T09:56:19.400Z,102534.05
2019-03-23T09:58:48.208Z,102527.72
2019-03-23T10:01:16.388Z,102522.59
2019-03-23T10:03:44.668Z,102533.54
2019-03-23T10:06:12.800Z,102534.61
2019-03-23T10:08:40.993Z,102549.41
2019-03-23T10:11:09.155Z,102553.02
2019-03-23T10:13:37.345Z,102553.14
2019-03-23T10:16:16.900Z,102562.97
2019-03-23T10:18:45.016Z,102571.36
2019-03-23T10:21:13.112Z,102569.14
2019-03-23T10:23:44.363Z,102570.12
2019-03-23T10:26:12.922Z,102565.56
2019-03-23T10:28:41.321Z,102564.11
2019-03-23T10:31:10.538Z,102571.05
2019-03-23T10:33:39.922Z,102565.53
2019-03-23T10:36:12.816Z,102566.84
2019-03-23T10:38:43.316Z,102548.39
2019-03-23T10:44:21.683Z,102457.33
2019-03-23T10:46:49.781Z,102561.85
2019-03-23T10:49:17.913Z,102557.44
2019-03-23T10:51:46.145Z,102566.71
2019-03-23T10:54:14.301Z,102570.80
2019-03-23T10:56:42.488Z,102565.08
2019-03-23T10:59:10.678Z,102570.44
2019-03-23T11:01:38.953Z,102561.44
2019-03-23T11:04:07.526Z,102557.33
2019-03-23T11:06:35.918Z,102559.27
2019-03-23T11:12:14.060Z,102560.23
2019-03-23T11:14:42.310Z,102560.20
2019-03-23T11:17:10.367Z,102569.97
2019-03-23T11:19:38.479Z,102581.72
2019-03-23T11:22:06.687Z,102584.36
2019-03-23T11:24:34.790Z,102584.89
2019-03-23T11:27:02.978Z,102588.97
2019-03-23T11:29:31.070Z,102590.60
2019-03-23T11:31:59.263Z,102597.88
2019-03-23T11:34:27.359Z,102597.89
2019-03-23T11:36:55.421Z,102606.58
2019-03-23T11:39:23.565Z,102598.73
2019-03-23T11:41:52.949Z,102604.53
2019-03-23T11:44:22.018Z,102607.17
2019-03-23T11:46:52.017Z,102608.06
2019-03-23T11:49:20.412Z,102602.66
2019-03-23T11:54:57.823Z,102623.09
2019-03-23T11:57:25.808Z,102613.09
2019-03-23T11:59:54.298Z,102603.95
2019-03-23T12:02:22.316Z,102612.13
2019-03-23T12:04:50.304Z,102605.85
2019-03-23T12:07:18.295Z,102616.22
2019-03-23T12:09:46.575Z,102607.23
2019-03-23T12:12:14.593Z,102620.22
2019-03-23T12:14:42.684Z,102614.58
2019-03-23T12:17:10.676Z,102616.45
2019-03-23T12:19:38.716Z,102622.14
2019-03-23T12:22:08.974Z,102629.70
2019-03-23T12:24:36.954Z,102624.19
2019-03-23T12:27:04.982Z,102635.41
2019-03-23T12:29:32.964Z,102644.60
2019-03-23T12:32:00.958Z,102649.42
2019-03-23T12:34:28.953Z,102512.23
2019-03-23T12:36:56.962Z,102660.87
2019-03-23T12:39:24.942Z,102665.31
2019-03-23T12:41:52.932Z,102652.66
2019-03-23T12:44:20.950Z,102568.41
2019-03-23T12:46:48.988Z,102657.06
2019-03-23T12:49:17.041Z,102659.77
2019-03-23T12:51:45.164Z,102651.09
2019-03-23T12:54:13.208Z,102649.00
2019-03-23T12:56:41.206Z,102658.48
2019-03-23T12:59:11.404Z,102651.14
2019-03-23T13:01:43.902Z,102653.40
2019-03-23T13:04:12.073Z,102655.72
2019-03-23T13:06:40.361Z,102655.77
2019-03-23T13:09:08.558Z,102655.31
2019-03-23T13:11:36.637Z,102658.80
2019-03-23T13:14:04.908Z,102661.55
2019-03-23T13:16:33.292Z,102659.67
2019-03-23T13:19:01.447Z,102654.25
2019-03-23T13:21:29.805Z,102652.48
2019-03-23T13:23:58.243Z,102652.45
2019-03-23T13:26:26.347Z,102652.93
2019-03-23T13:28:54.489Z,102648.80
2019-03-23T13:31:22.636Z,102656.05
2019-03-23T13:33:50.808Z,102649.23
2019-03-23T13:36:18.943Z,102642.94
2019-03-23T13:38:47.115Z,102643.47
2019-03-23T13:41:15.254Z,102643.47
2019-03-23T13:43:43.307Z,102635.67
2019-03-23T13:46:11.418Z,102641.59
2019-03-23T13:48:39.790Z,102482.38
2019-03-23T13:51:07.862Z,102634.39
2019-03-23T13:53:37.679Z,102629.89
2019-03-23T13:56:05.733Z,102635.17
2019-03-23T13:58:33.891Z,102629.33
2019-03-23T14:01:02.025Z,102633.08
2019-03-23T14:03:30.132Z,102631.20
2019-03-23T14:05:58.184Z,102632.88
2019-03-23T14:08:26.367Z,102631.13
2019-03-23T14:10:54.520Z,102627.63
2019-03-23T14:13:22.647Z,102622.83
2019-03-23T14:15:50.824Z,102633.73
2019-03-23T14:18:19.101Z,102628.91
2019-03-23T14:20:47.264Z,102633.47
2019-03-23T14:23:15.417Z,102628.75
2019-03-23T14:25:43.558Z,102619.14
2019-03-23T14:28:11.740Z,102622.96
2019-03-23T14:30:39.896Z,102637.42
2019-03-23T14:33:08.064Z,102637.54
2019-03-23T14:35:36.303Z,102627.11
2019-03-23T14:38:04.335Z,102632.82
2019-03-23T14:40:32.397Z,102627.05
2019-03-23T14:43:00.546Z,102632.88
2019-03-23T14:45:28.693Z,102632.89
2019-03-23T14:47:56.776Z,102636.13
2019-03-23T14:50:24.809Z,102631.62
2019-03-23T14:52:52.865Z,102631.42
2019-03-23T14:55:21.064Z,102629.63
2019-03-23T14:57:49.530Z,102632.03
2019-03-23T15:00:23.348Z,102637.06
2019-03-23T15:02:52.612Z,102565.12
2019-03-23T15:05:21.557Z,102633.44
2019-03-23T15:07:49.676Z,102643.16
2019-03-23T15:10:17.816Z,102644.91
2019-03-23T15:12:45.986Z,102640.86
2019-03-23T15:15:14.186Z,102640.52
2019-03-23T15:17:48.678Z,102642.44
2019-03-23T15:20:12.251Z,102597.28
2019-03-23T15:22:40.328Z,102654.21
2019-03-23T15:25:08.685Z,102650.23
2019-03-23T15:27:36.819Z,102647.38
2019-03-23T15:30:05.263Z,102663.73
2019-03-23T15:32:33.574Z,102658.77
2019-03-23T15:35:01.680Z,102661.94
2019-03-23T15:37:29.770Z,102664.50
2019-03-23T15:39:57.990Z,102659.27
2019-03-23T15:42:26.302Z,102657.09
2019-03-23T15:44:54.482Z,102667.99
2019-03-23T15:47:22.701Z,102672.44
2019-03-23T15:49:50.775Z,102676.81
2019-03-23T15:52:18.816Z,102679.94
2019-03-23T15:54:49.601Z,102683.00
2019-03-23T15:57:17.680Z,102684.26
2019-03-23T15:59:45.783Z,102675.55
2019-03-23T16:02:13.984Z,102681.37
2019-03-23T16:04:42.109Z,102687.91
2019-03-23T16:07:10.233Z,102688.56
2019-03-23T16:09:38.546Z,102692.13
2019-03-23T16:12:06.690Z,102699.55
2019-03-23T16:14:36.048Z,102693.41
2019-03-23T16:17:04.103Z,102703.28
2019-03-23T16:19:33.303Z,102712.44
2019-03-23T16:22:01.394Z,102723.41
2019-03-23T16:24:29.515Z,102715.41
2019-03-23T16:26:57.802Z,102711.02
2019-03-23T16:29:25.858Z,102714.09
2019-03-23T16:31:53.929Z,102712.20
2019-03-23T16:34:27.910Z,102711.55
2019-03-23T16:37:08.377Z,102717.02
2019-03-23T16:39:37.034Z,102722.02
2019-03-23T16:42:05.283Z,102726.59
2019-03-23T16:44:38.888Z,102717.23
2019-03-23T16:47:07.054Z,102718.09
2019-03-23T16:49:35.256Z,102716.57
2019-03-23T16:52:03.502Z,102714.27
2019-03-23T16:54:32.137Z,102706.30
2019-03-23T16:57:01.780Z,102714.16
2019-03-23T16:59:29.756Z,102670.65
2019-03-23T17:01:57.790Z,102726.17
2019-03-23T17:04:25.942Z,102728.78
2019-03-23T17:06:53.982Z,102729.71
2019-03-23T17:09:21.961Z,102731.89
2019-03-23T17:11:49.947Z,102734.08
2019-03-23T17:14:17.995Z,102731.00
2019-03-23T17:16:49.106Z,102731.07
2019-03-23T17:19:22.359Z,102742.86
2019-03-23T17:21:47.698Z,102746.91
2019-03-23T17:24:16.174Z,102718.37
2019-03-23T17:26:44.187Z,102722.76
2019-03-23T17:29:13.190Z,102753.25
2019-03-23T17:31:41.170Z,102757.69
2019-03-23T17:34:09.258Z,102757.31
2019-03-23T17:36:37.250Z,102757.74
2019-03-23T17:39:06.018Z,102760.47
2019-03-23T17:41:33.998Z,102756.42
2019-03-23T17:44:02.000Z,102756.45
2019-03-23T17:46:30.011Z,102756.03
2019-03-23T17:48:58.023Z,102611.38
2019-03-23T17:51:26.007Z,102763.66
2019-03-23T17:53:58.587Z,102769.48
2019-03-23T17:56:32.288Z,102769.06
2019-03-23T17:59:00.739Z,102768.61
2019-03-23T18:01:29.456Z,102765.02
2019-03-23T18:03:57.575Z,102769.52
2019-03-23T18:06:25.754Z,102771.33
2019-03-23T18:08:53.778Z,102771.33
2019-03-23T18:11:21.842Z,102781.64
2019-03-23T18:13:50.880Z,102777.17
2019-03-23T18:16:20.034Z,102774.94
2019-03-23T18:18:48.184Z,102782.55
2019-03-23T18:21:16.179Z,102781.20
2019-03-23T18:23:44.562Z,102749.38
2019-03-23T18:26:12.588Z,102787.45
2019-03-23T18:28:40.638Z,102784.33
2019-03-23T18:31:08.654Z,102782.98
2019-03-23T18:33:39.215Z,102785.63
2019-03-23T18:36:07.515Z,102789.72
2019-03-23T18:38:35.556Z,102789.72
2019-03-23T18:41:03.558Z,102794.66
2019-03-23T18:43:31.608Z,102795.10
2019-03-23T18:45:59.636Z,102797.28
2019-03-23T18:48:27.618Z,102796.84
2019-03-23T18:50:55.648Z,102793.73
2019-03-23T18:53:24.215Z,102752.97
2019-03-23T18:55:52.285Z,102804.53
2019-03-23T18:58:20.275Z,102807.66
2019-03-23T19:00:48.306Z,102808.52
2019-03-23T19:03:16.308Z,102811.65
2019-03-23T19:05:44.599Z,102821.09
2019-03-23T19:08:12.944Z,102819.77
2019-03-23T19:10:40.949Z,102817.52
2019-03-23T19:13:13.299Z,102820.68
2019-03-23T19:15:43.734Z,102824.69
2019-03-23T19:18:11.756Z,102820.20
2019-03-23T19:20:39.732Z,102825.58
2019-03-23T19:23:07.707Z,102836.27
2019-03-23T19:25:35.709Z,102826.91
2019-03-23T19:28:03.703Z,102838.37
2019-03-23T19:30:31.750Z,102844.27
2019-03-23T19:32:59.824Z,102838.40
2019-03-23T19:35:27.795Z,102838.64
2019-03-23T19:37:55.805Z,102658.78
2019-03-23T19:40:23.814Z,102834.72
2019-03-23T19:42:51.903Z,102836.48
2019-03-23T19:45:19.890Z,102843.16
2019-03-23T19:47:47.931Z,102841.13
2019-03-23T19:50:17.152Z,102845.86
2019-03-23T19:52:45.228Z,102821.47
2019-03-23T19:55:13.226Z,102841.67
2019-03-23T19:57:41.290Z,102845.69
2019-03-23T20:00:09.399Z,102845.28
2019-03-23T20:02:37.403Z,102843.58
2019-03-23T20:05:05.551Z,102840.42
2019-03-23T20:07:33.579Z,102838.28
2019-03-23T20:10:01.688Z,102849.42
2019-03-23T20:12:29.664Z,102852.92
2019-03-23T20:14:57.670Z,102845.72
2019-03-23T20:17:25.742Z,102711.33
2019-03-23T20:19:53.778Z,102854.45
2019-03-23T20:22:21.779Z,102854.40
2019-03-23T20:24:49.798Z,102852.93
2019-03-23T20:27:17.810Z,102855.34
2019-03-23T20:29:51.808Z,102856.79
2019-03-23T20:32:20.251Z,102863.89
2019-03-23T20:34:48.236Z,102864.70
2019-03-23T20:37:16.219Z,102870.50
2019-03-23T20:39:44.254Z,102864.45
2019-03-23T20:42:12.282Z,102848.02
2019-03-23T20:44:40.362Z,102846.20
2019-03-23T20:47:08.494Z,102851.27
2019-03-23T20:49:36.638Z,102857.00
2019-03-23T20:52:04.686Z,102858.56
2019-03-23T20:54:32.667Z,102861.31
2019-03-23T20:57:00.682Z,102870.06
2019-03-23T20:59:28.692Z,102871.32
2019-03-23T21:01:56.734Z,102870.42
2019-03-23T21:04:24.769Z,102870.30
2019-03-23T21:06:52.792Z,102869.52
2019-03-23T21:09:20.811Z,102864.22
2019-03-23T21:11:54.182Z,102866.06
2019-03-23T21:14:22.234Z,102771.81
2019-03-23T21:16:50.235Z,102875.84
2019-03-23T21:19:18.214Z,102873.16
2019-03-23T21:21:46.252Z,102872.69
2019-03-23T21:24:14.222Z,102815.18
2019-03-23T21:26:42.258Z,102856.45
2019-03-23T21:29:10.239Z,102869.34
2019-03-23T21:31:38.227Z,102856.67
2019-03-23T21:34:06.210Z,102858.39
2019-03-23T21:36:34.246Z,102860.87
2019-03-23T21:39:02.278Z,102859.55
2019-03-23T21:41:30.291Z,102869.98
2019-03-23T21:43:58.305Z,102863.98
2019-03-23T21:46:26.363Z,102863.25
2019-03-23T21:48:54.358Z,102867.27
2019-03-23T21:51:24.147Z,102863.72
2019-03-23T21:53:53.203Z,102863.22
2019-03-23T21:56:21.257Z,102861.49
2019-03-23T21:58:49.350Z,102859.77
2019-03-23T22:01:17.343Z,102853.91
2019-03-23T22:03:45.355Z,102851.30
2019-03-23T22:06:13.401Z,102854.41
2019-03-23T22:08:41.620Z,102849.06
2019-03-23T22:11:09.679Z,102844.64
2019-03-23T22:13:37.699Z,102845.88
2019-03-23T22:16:05.718Z,102847.23
2019-03-23T22:18:33.734Z,102846.41
2019-03-23T22:21:01.755Z,102842.45
2019-03-23T22:23:29.806Z,102848.13
2019-03-23T22:25:57.814Z,102845.06
2019-03-23T22:28:25.843Z,102846.47
2019-03-23T22:30:53.917Z,102848.74
2019-03-23T22:33:28.060Z,102845.14
2019-03-23T22:35:56.211Z,102843.39
2019-03-23T22:38:24.197Z,102846.19
2019-03-23T22:40:52.179Z,102840.77
2019-03-23T22:43:20.163Z,102842.77
2019-03-23T22:45:48.201Z,102840.83
2019-03-23T22:48:16.214Z,102841.64
2019-03-23T22:50:44.318Z,102845.23
2019-03-23T22:53:12.345Z,102835.50
2019-03-23T22:55:40.347Z,102828.69
2019-03-23T22:58:08.378Z,102829.61
2019-03-23T23:00:54.545Z,102836.95
2019-03-23T23:03:41.036Z,102830.20
2019-03-23T23:06:19.551Z,102832.05
2019-03-23T23:08:46.802Z,102845.06
2019-03-23T23:11:14.798Z,102840.48
2019-03-23T23:13:42.799Z,102835.39
2019-03-23T23:16:10.772Z,102839.62
2019-03-23T23:18:38.895Z,102833.11
2019-03-23T23:21:06.894Z,102837.34
2019-03-23T23:23:35.445Z,102819.47
2019-03-23T23:26:03.622Z,102825.75
2019-03-23T23:28:31.688Z,102831.54
2019-03-23T23:30:59.790Z,102824.88
2019-03-23T23:33:31.552Z,102831.30
2019-03-23T23:35:59.546Z,102819.33
2019-03-23T23:38:27.545Z,102754.01
2019-03-23T23:40:55.539Z,102815.41
2019-03-23T23:43:23.546Z,102821.21
2019-03-23T23:45:51.595Z,102822.59
2019-03-23T23:48:19.870Z,102822.69
2019-03-23T23:50:47.854Z,102827.62
2019-03-23T23:53:15.923Z,102838.92
2019-03-23T23:55:43.918Z,102832.60
2019-03-23T23:58:11.918Z,102748.33
